Capitol Logistics 2089

Operating for MET



KCVG
Cincinnati/Northern Kentucky International Airport
Covington, Kentucky
KBOS
Logan International Airport
Boston, Massachusetts

Activity Log

Date Flight Route Aircraft Duration
No Flights Yet

Route Details

Aircraft Information
Group: North America Fleet
Types: B738,B752,B762,B763
Route Data
Demand: V
Distance: 653nm
Duration: 1h 37m
Recm'd Route: BNGLE4 DJB JHW Q82 PONCT JFUND2
Origin Wx: KCVG 270652Z 19004KT 10SM FEW060 15/15 A2980 RMK AO2 SLP085 T01500150 $
Dest. Wx: KBOS 270654Z 19008KT 10SM SCT036 BKN220 16/14 A3004 RMK AO2 SLP172 T01560139
Notes: OPF METRO AIR VIRTUAL

Financial History
Total Freight: 0lbs
Average Load: 0lbs/flt
Fuel Used: 0lbs
Avg. Fuel Used: 0lbs/flt
Fuel Expense: $0
Avg. Fuel Expense: $0
Avg. Fuel Cost: $0/lbs
Total Gross Income: $0
Pilot Pay: $0
Total Expenses: $0
Total Revenue: $0
Average Revenue: $0